createdAt,value
2023-05-01T00:00:49.144Z,17.3077
2023-05-01T00:01:50.504Z,17.1538
2023-05-01T00:02:52.090Z,17.1385
2023-05-01T00:03:53.462Z,17.3692
2023-05-01T00:04:54.911Z,17.4154
2023-05-01T00:05:56.235Z,17.4923
2023-05-01T00:06:57.623Z,17.5077
2023-05-01T00:07:59.020Z,17.4769
2023-05-01T00:09:00.484Z,17.7385
2023-05-01T00:10:01.921Z,17.6000
2023-05-01T00:11:03.313Z,17.5538
2023-05-01T00:12:04.740Z,17.5846
2023-05-01T00:13:06.155Z,17.6615
2023-05-01T00:14:07.567Z,17.6154
2023-05-01T00:15:09.000Z,17.7385
2023-05-01T00:16:10.505Z,17.5385
2023-05-01T00:17:11.785Z,18.0000
2023-05-01T00:18:13.278Z,17.4769
2023-05-01T00:19:14.736Z,18.0615
2023-05-01T00:20:16.108Z,18.2615
2023-05-01T00:21:17.548Z,17.5385
2023-05-01T00:22:18.872Z,17.6769
2023-05-01T00:23:20.278Z,17.6000
2023-05-01T00:24:21.781Z,17.7385
2023-05-01T00:25:23.175Z,17.6769
2023-05-01T00:26:24.617Z,17.8462
2023-05-01T00:27:25.993Z,17.9846
2023-05-01T00:28:27.434Z,17.9077
2023-05-01T00:29:28.809Z,18.3538
2023-05-01T00:30:30.297Z,17.7846
2023-05-01T00:31:31.716Z,17.9692
2023-05-01T00:32:33.208Z,18.2769
2023-05-01T00:33:34.509Z,17.6308
2023-05-01T00:34:35.961Z,17.5231
2023-05-01T00:35:37.309Z,18.4923
2023-05-01T00:36:38.849Z,17.6462
2023-05-01T00:37:40.188Z,18.0769
2023-05-01T00:38:41.605Z,17.8615
2023-05-01T00:39:43.050Z,17.7846
2023-05-01T00:40:44.499Z,18.2154
2023-05-01T00:41:45.808Z,17.9538
2023-05-01T00:42:47.328Z,17.7692
2023-05-01T00:43:48.683Z,17.8000
2023-05-01T00:44:50.093Z,17.6462
2023-05-01T00:45:51.754Z,17.8615
2023-05-01T00:46:53.080Z,17.9846
2023-05-01T00:47:54.435Z,17.8308
2023-05-01T00:48:55.793Z,18.0000
2023-05-01T00:49:57.386Z,17.8462
2023-05-01T00:50:58.674Z,17.6615
2023-05-01T00:52:00.142Z,18.0000
2023-05-01T00:53:01.542Z,18.0923
2023-05-01T00:54:02.910Z,17.8923
2023-05-01T00:55:04.358Z,17.9846
2023-05-01T00:56:05.674Z,18.2615
2023-05-01T00:57:07.209Z,17.3231
2023-05-01T00:58:08.580Z,17.8462
2023-05-01T00:59:10.036Z,17.9385
2023-05-01T01:00:11.419Z,18.0462
2023-05-01T01:01:12.904Z,17.4462
2023-05-01T01:02:14.316Z,17.7231
2023-05-01T01:03:15.742Z,17.5692
2023-05-01T01:04:17.143Z,17.4769
2023-05-01T01:05:18.459Z,17.7077
2023-05-01T01:06:19.965Z,18.0154
2023-05-01T01:07:21.456Z,17.5846
2023-05-01T01:08:22.710Z,18.0462
2023-05-01T01:09:24.229Z,17.3538
2023-05-01T01:10:25.600Z,17.8462
2023-05-01T01:11:27.081Z,17.7385
2023-05-01T01:12:28.490Z,17.6000
2023-05-01T01:13:29.890Z,18.0615
2023-05-01T01:14:31.279Z,17.4308
2023-05-01T01:15:32.702Z,18.0154
2023-05-01T01:16:34.204Z,17.7846
2023-05-01T01:17:35.682Z,17.3077
2023-05-01T01:18:36.862Z,17.7231
2023-05-01T01:19:38.406Z,17.4923
2023-05-01T01:20:39.791Z,17.2000
2023-05-01T01:21:41.268Z,17.8000
2023-05-01T01:22:42.658Z,18.0154
2023-05-01T01:23:44.110Z,17.7692
2023-05-01T01:24:45.453Z,17.6615
2023-05-01T01:25:46.919Z,17.3231
2023-05-01T01:26:48.303Z,17.9231
2023-05-01T01:27:49.890Z,17.4769
2023-05-01T01:28:51.156Z,17.7846
2023-05-01T01:29:52.642Z,17.5846
2023-05-01T01:30:54.028Z,17.5231
2023-05-01T01:31:55.453Z,17.8615
2023-05-01T01:32:56.887Z,17.4154
2023-05-01T01:33:58.297Z,17.1385
2023-05-01T01:34:59.670Z,17.6923
2023-05-01T01:36:01.116Z,17.6154
2023-05-01T01:37:02.508Z,17.5538
2023-05-01T01:38:04.057Z,17.3077
2023-05-01T01:39:05.367Z,17.6308
2023-05-01T01:40:06.840Z,17.5077
2023-05-01T01:41:08.217Z,18.2615
2023-05-01T01:42:09.646Z,17.6462
2023-05-01T01:43:11.125Z,18.0154
2023-05-01T01:44:12.453Z,18.0769
2023-05-01T01:45:13.878Z,18.6462
2023-05-01T01:46:15.362Z,18.5538
2023-05-01T01:47:16.740Z,18.3538
2023-05-01T01:48:18.169Z,18.3692
2023-05-01T01:49:20.894Z,18.2615
2023-05-01T01:50:21.048Z,17.8154
2023-05-01T01:51:22.497Z,17.9846
2023-05-01T01:52:23.905Z,18.1077
2023-05-01T01:53:25.226Z,18.0769
2023-05-01T01:54:26.710Z,18.0308
2023-05-01T01:55:28.104Z,17.8769
2023-05-01T01:56:29.560Z,17.7231
2023-05-01T01:57:30.948Z,17.7692
2023-05-01T01:58:32.462Z,18.0000
2023-05-01T01:59:33.833Z,18.1077
2023-05-01T02:00:35.277Z,18.0769
2023-05-01T02:01:36.718Z,18.2308
2023-05-01T02:02:38.280Z,18.0615
2023-05-01T02:03:39.622Z,18.2462
2023-05-01T02:04:40.934Z,18.0615
2023-05-01T02:05:42.343Z,18.0308
2023-05-01T02:06:43.863Z,18.1538
2023-05-01T02:07:45.166Z,18.1077
2023-05-01T02:08:46.693Z,17.7385
2023-05-01T02:09:48.041Z,17.0923
2023-05-01T02:10:49.469Z,17.3538
2023-05-01T02:11:50.842Z,17.6308
2023-05-01T02:12:52.350Z,17.8308
2023-05-01T02:13:53.747Z,17.6154
2023-05-01T02:14:55.147Z,17.6308
2023-05-01T02:15:56.611Z,17.5385
2023-05-01T02:16:57.954Z,17.5077
2023-05-01T02:17:59.463Z,17.4615
2023-05-01T02:19:00.826Z,17.4769
2023-05-01T02:20:02.287Z,17.5385
2023-05-01T02:21:03.586Z,17.4154
2023-05-01T02:22:05.106Z,17.2462
2023-05-01T02:23:06.535Z,17.3538
2023-05-01T02:24:07.983Z,17.2462
2023-05-01T02:25:09.362Z,17.4462
2023-05-01T02:26:10.699Z,17.6308
2023-05-01T02:27:12.267Z,17.8615
2023-05-01T02:28:13.579Z,18.1385
2023-05-01T02:29:15.057Z,17.9846
2023-05-01T02:30:16.447Z,17.6615
2023-05-01T02:31:17.891Z,17.6154
2023-05-01T02:32:19.397Z,17.8308
2023-05-01T02:33:20.691Z,18.0308
2023-05-01T02:34:22.197Z,17.6154
2023-05-01T02:35:23.541Z,18.3077
2023-05-01T02:36:25.012Z,17.7538
2023-05-01T02:37:26.393Z,18.0615
2023-05-01T02:38:27.851Z,17.5538
2023-05-01T02:39:29.268Z,17.8769
2023-05-01T02:40:30.672Z,17.5538
2023-05-01T02:41:32.108Z,17.6769
2023-05-01T02:42:33.550Z,17.9077
2023-05-01T02:43:34.930Z,17.5846
2023-05-01T02:44:36.453Z,17.9385
2023-05-01T02:45:37.801Z,17.8308
2023-05-01T02:46:39.258Z,17.6308
2023-05-01T02:47:40.651Z,17.4769
2023-05-01T02:48:42.062Z,17.3846
2023-05-01T02:49:43.508Z,17.7538
2023-05-01T02:50:44.911Z,17.4615
2023-05-01T02:51:46.322Z,17.7385
2023-05-01T02:52:47.761Z,17.9077
2023-05-01T02:53:49.153Z,17.8462
2023-05-01T02:54:50.691Z,17.8154
2023-05-01T02:55:51.998Z,18.2923
2023-05-01T02:56:53.443Z,18.0615
2023-05-01T02:57:54.841Z,17.6923
2023-05-01T02:58:56.301Z,18.3846
2023-05-01T02:59:58.051Z,17.9846
2023-05-01T03:00:59.228Z,17.9385
2023-05-01T03:02:00.424Z,17.2154
2023-05-01T03:03:02.037Z,17.7538
2023-05-01T03:04:03.457Z,17.4615
2023-05-01T03:05:04.836Z,17.9538
2023-05-01T03:06:06.185Z,18.0923
2023-05-01T03:07:07.697Z,17.6000
2023-05-01T03:08:09.046Z,18.0000
2023-05-01T03:09:10.497Z,18.2000
2023-05-01T03:10:11.897Z,17.8462
2023-05-01T03:11:13.404Z,17.7692
2023-05-01T03:12:14.746Z,18.0615
2023-05-01T03:13:16.208Z,18.0154
2023-05-01T03:14:17.582Z,17.7385
2023-05-01T03:15:19.076Z,17.8308
2023-05-01T03:16:20.533Z,17.9077
2023-05-01T03:17:21.883Z,17.6923
2023-05-01T03:18:23.177Z,17.8154
2023-05-01T03:19:24.667Z,17.6923
2023-05-01T03:20:27.450Z,18.0154
2023-05-01T03:21:27.544Z,17.7846
2023-05-01T03:22:28.988Z,18.2615
2023-05-01T03:23:30.401Z,18.1385
2023-05-01T03:24:31.773Z,17.9846
2023-05-01T03:25:33.223Z,18.6000
2023-05-01T03:26:34.659Z,18.2462
2023-05-01T03:27:36.117Z,18.1385
2023-05-01T03:28:37.423Z,17.6615
2023-05-01T03:29:38.856Z,18.0000
2023-05-01T03:30:40.322Z,17.8308
2023-05-01T03:31:41.814Z,18.2000
2023-05-01T03:32:43.202Z,17.9231
2023-05-01T03:33:44.583Z,17.8154
2023-05-01T03:34:45.967Z,17.8769
2023-05-01T03:35:47.575Z,17.7231
2023-05-01T03:36:48.928Z,18.3692
2023-05-01T03:37:50.323Z,18.1231
2023-05-01T03:38:51.607Z,18.0000
2023-05-01T03:39:53.255Z,17.9077
2023-05-01T03:40:54.533Z,17.8923
2023-05-01T03:41:55.892Z,18.0000
2023-05-01T03:42:57.336Z,17.7538
2023-05-01T03:43:58.816Z,17.7077
2023-05-01T03:45:00.192Z,17.8154
2023-05-01T03:46:01.706Z,18.3846
2023-05-01T03:47:03.045Z,17.7385
2023-05-01T03:48:04.537Z,17.9077
2023-05-01T03:49:05.871Z,17.9846
2023-05-01T03:50:07.332Z,18.2308
2023-05-01T03:51:08.756Z,17.5692
2023-05-01T03:52:10.195Z,17.7846
2023-05-01T03:53:11.580Z,17.4923
2023-05-01T03:54:13.014Z,18.1846
2023-05-01T03:55:14.425Z,18.4154
2023-05-01T03:56:15.932Z,17.4462
2023-05-01T03:57:17.310Z,18.2769
2023-05-01T03:58:18.720Z,17.9231
2023-05-01T03:59:20.220Z,17.9231
2023-05-01T04:00:21.640Z,17.8000
2023-05-01T04:01:23.112Z,17.8462
2023-05-01T04:02:24.713Z,17.5077
2023-05-01T04:03:25.957Z,17.6462
2023-05-01T04:04:27.275Z,18.0154
2023-05-01T04:05:28.828Z,17.8769
2023-05-01T04:06:30.300Z,18.1385
2023-05-01T04:07:31.653Z,18.8154
2023-05-01T04:08:33.048Z,17.4308
2023-05-01T04:09:34.451Z,18.2615
2023-05-01T04:10:35.853Z,17.7692
2023-05-01T04:11:37.304Z,17.5846
2023-05-01T04:12:38.768Z,18.2000
2023-05-01T04:13:40.102Z,17.6154
2023-05-01T04:14:41.559Z,18.2000
2023-05-01T04:15:42.958Z,18.1846
2023-05-01T04:16:44.503Z,17.8769
2023-05-01T04:17:45.888Z,17.9077
2023-05-01T04:18:47.298Z,17.9077
2023-05-01T04:19:48.698Z,17.7077
2023-05-01T04:20:50.010Z,18.2000
2023-05-01T04:21:51.553Z,18.7385
2023-05-01T04:22:52.965Z,18.2769
2023-05-01T04:23:54.359Z,18.1077
2023-05-01T04:24:55.803Z,18.0615
2023-05-01T04:25:57.174Z,18.4000
2023-05-01T04:26:58.695Z,18.6000
2023-05-01T04:28:00.093Z,18.4000
2023-05-01T04:29:01.511Z,18.4923
2023-05-01T04:30:02.862Z,17.9538
2023-05-01T04:31:04.315Z,17.8615
2023-05-01T04:32:05.807Z,17.8615
2023-05-01T04:33:07.278Z,18.0000
2023-05-01T04:34:08.536Z,17.9692
2023-05-01T04:35:10.039Z,18.4769
2023-05-01T04:36:11.402Z,17.5846
2023-05-01T04:37:12.817Z,17.8462
2023-05-01T04:38:14.279Z,18.5692
2023-05-01T04:39:15.677Z,18.3692
2023-05-01T04:40:16.981Z,18.5538
2023-05-01T04:41:18.515Z,17.8923
2023-05-01T04:42:19.965Z,17.8000
2023-05-01T04:43:21.384Z,18.2769
2023-05-01T04:44:22.798Z,18.2769
2023-05-01T04:45:24.189Z,17.7077
2023-05-01T04:46:25.679Z,17.8308
2023-05-01T04:47:27.104Z,17.5231
2023-05-01T04:48:28.488Z,17.9538
2023-05-01T04:49:29.932Z,18.3538
2023-05-01T04:50:31.358Z,18.2000
2023-05-01T04:51:32.753Z,18.4154
2023-05-01T04:52:34.189Z,18.2154
2023-05-01T04:53:35.621Z,18.2000
2023-05-01T04:54:37.004Z,18.0615
2023-05-01T04:55:38.470Z,18.5385
2023-05-01T04:56:39.885Z,17.9538
2023-05-01T04:57:41.324Z,18.1846
2023-05-01T04:58:42.727Z,17.8154
2023-05-01T04:59:44.070Z,17.7692
2023-05-01T05:00:45.522Z,18.0769
2023-05-01T05:01:46.994Z,18.5231
2023-05-01T05:02:48.589Z,18.1231
2023-05-01T05:03:50.375Z,17.8615
2023-05-01T05:04:51.300Z,18.2769
2023-05-01T05:05:52.640Z,18.3231
2023-05-01T05:06:54.192Z,18.0308
2023-05-01T05:07:55.469Z,18.0154
2023-05-01T05:08:56.971Z,18.1077
2023-05-01T05:09:58.602Z,18.1692
2023-05-01T05:10:59.836Z,17.9538
2023-05-01T05:12:01.180Z,18.5692
2023-05-01T05:13:02.652Z,18.0154
2023-05-01T05:14:04.100Z,18.0923
2023-05-01T05:15:05.500Z,17.8308
2023-05-01T05:16:06.914Z,17.9077
2023-05-01T05:17:08.330Z,18.0769
2023-05-01T05:18:09.853Z,18.0769
2023-05-01T05:19:11.241Z,18.2923
2023-05-01T05:20:12.639Z,18.1385
2023-05-01T05:21:14.025Z,17.9077
2023-05-01T05:22:15.364Z,18.0000
2023-05-01T05:23:16.837Z,18.3692
2023-05-01T05:24:18.333Z,17.7385
2023-05-01T05:25:19.704Z,18.5692
2023-05-01T05:26:21.145Z,17.9846
2023-05-01T05:27:22.511Z,18.1385
2023-05-01T05:28:24.013Z,18.4154
2023-05-01T05:29:25.453Z,17.8615
2023-05-01T05:30:26.858Z,18.8615
2023-05-01T05:31:28.283Z,18.1231
2023-05-01T05:32:29.850Z,18.1385
2023-05-01T05:33:31.087Z,17.9692
2023-05-01T05:34:32.538Z,17.8462
2023-05-01T05:35:33.916Z,18.3538
2023-05-01T05:36:35.312Z,17.9385
2023-05-01T05:37:36.716Z,17.9077
2023-05-01T05:38:38.204Z,18.3385
2023-05-01T05:39:39.649Z,17.9077
2023-05-01T05:40:41.059Z,17.8923
2023-05-01T05:41:42.414Z,18.2923
2023-05-01T05:42:43.860Z,18.2769
2023-05-01T05:43:45.279Z,18.0769
2023-05-01T05:44:46.745Z,18.2769
2023-05-01T05:45:48.165Z,18.1692
2023-05-01T05:46:49.554Z,18.5077
2023-05-01T05:47:50.985Z,18.2769
2023-05-01T05:48:52.420Z,18.1692
2023-05-01T05:49:53.921Z,18.0923
2023-05-01T05:50:55.262Z,18.1846
2023-05-01T05:51:56.659Z,17.9692
2023-05-01T05:52:58.084Z,18.4923
2023-05-01T05:53:59.552Z,18.0769
2023-05-01T05:55:00.883Z,18.6000
2023-05-01T05:56:02.416Z,18.4615
2023-05-01T05:57:03.792Z,18.2769
2023-05-01T05:58:05.236Z,18.1231
2023-05-01T05:59:06.623Z,18.0000
2023-05-01T06:00:08.090Z,18.1846
2023-05-01T06:01:09.525Z,18.0923
2023-05-01T06:02:10.948Z,17.8923
2023-05-01T06:03:12.442Z,17.8615
2023-05-01T06:04:13.745Z,18.3385
2023-05-01T06:05:15.214Z,17.8615
2023-05-01T06:06:16.682Z,18.1692
2023-05-01T06:07:18.028Z,18.3846
2023-05-01T06:08:19.458Z,17.9692
2023-05-01T06:09:20.854Z,17.6000
2023-05-01T06:10:22.293Z,18.1077
2023-05-01T06:11:23.794Z,17.6154
2023-05-01T06:12:25.150Z,18.3692
2023-05-01T06:13:26.505Z,18.2308
2023-05-01T06:14:27.966Z,18.2923
2023-05-01T06:15:29.388Z,18.5538
2023-05-01T06:16:30.972Z,18.0000
2023-05-01T06:17:32.294Z,17.7846
2023-05-01T06:18:33.656Z,18.2462
2023-05-01T06:19:35.022Z,17.8000
2023-05-01T06:20:36.417Z,18.0769
2023-05-01T06:21:37.925Z,17.8154
2023-05-01T06:22:39.307Z,18.0000
2023-05-01T06:23:40.743Z,17.9077
2023-05-01T06:24:42.143Z,17.8769
2023-05-01T06:25:43.580Z,17.7077
2023-05-01T06:26:44.930Z,17.8923
2023-05-01T06:27:46.481Z,17.2462
2023-05-01T06:28:47.818Z,18.2000
2023-05-01T06:29:49.220Z,17.4308
2023-05-01T06:30:50.662Z,17.8154
2023-05-01T06:31:52.213Z,17.4462
2023-05-01T06:32:53.562Z,17.8308
2023-05-01T06:33:54.957Z,18.0769
2023-05-01T06:34:56.366Z,17.7538
2023-05-01T06:35:57.892Z,17.4308
2023-05-01T06:36:59.189Z,17.8000
2023-05-01T06:38:00.697Z,17.1692
2023-05-01T06:39:02.093Z,18.0000
2023-05-01T06:40:03.495Z,18.0769
2023-05-01T06:41:04.900Z,17.2769
2023-05-01T06:42:06.306Z,18.0000
2023-05-01T06:43:07.766Z,18.0000
2023-05-01T06:44:09.248Z,16.5692
2023-05-01T06:45:10.646Z,17.7077
2023-05-01T06:46:11.965Z,17.6154
2023-05-01T06:47:13.435Z,17.2615
2023-05-01T06:48:14.905Z,17.2769
2023-05-01T06:49:16.246Z,17.3385
2023-05-01T06:50:17.693Z,17.7538
2023-05-01T06:51:19.040Z,17.4462
2023-05-01T06:52:20.498Z,17.8769
2023-05-01T06:53:21.834Z,16.8615
2023-05-01T06:54:23.345Z,16.9538
2023-05-01T06:55:24.711Z,17.2308
2023-05-01T06:56:26.150Z,17.7846
2023-05-01T06:57:27.552Z,18.1385
2023-05-01T06:58:29.016Z,17.2462
2023-05-01T06:59:30.372Z,17.8615
2023-05-01T07:00:31.888Z,18.1385
2023-05-01T07:01:35.297Z,17.6000
2023-05-01T07:02:34.794Z,17.3692
2023-05-01T07:03:36.181Z,17.4615
2023-05-01T07:04:37.579Z,17.8154
2023-05-01T07:05:38.854Z,17.7077
2023-05-01T07:06:40.446Z,19.2769
2023-05-01T07:07:47.304Z,18.6000
2023-05-01T07:08:43.282Z,18.8333
2023-05-01T07:09:44.618Z,19.9385
2023-05-01T07:10:46.075Z,15.9692
2023-05-01T07:11:47.476Z,13.0308
2023-05-01T07:12:48.897Z,10.4923
2023-05-01T07:13:50.360Z,8.0000
2023-05-01T07:14:51.713Z,6.1385
2023-05-01T07:15:54.567Z,4.8000
2023-05-01T07:16:54.766Z,4.2615
2023-05-01T07:17:56.059Z,4.3846
2023-05-01T07:18:57.469Z,3.8615
2023-05-01T07:19:59.037Z,4.2769
2023-05-01T07:21:00.270Z,3.6615
2023-05-01T07:22:01.688Z,3.4615
2023-05-01T07:23:04.645Z,3.7077
2023-05-01T07:24:04.590Z,3.7846
2023-05-01T07:25:05.917Z,3.4000
2023-05-01T07:26:07.402Z,3.9231
2023-05-01T07:27:08.727Z,3.7846
2023-05-01T07:28:10.251Z,4.7692
2023-05-01T07:29:11.724Z,5.6615
2023-05-01T07:30:13.141Z,5.9692
2023-05-01T07:31:14.471Z,6.0769
2023-05-01T07:32:16.017Z,4.9692
2023-05-01T07:33:17.359Z,5.7385
2023-05-01T07:34:18.786Z,5.1538
2023-05-01T07:35:20.221Z,7.3385
2023-05-01T07:36:21.625Z,6.6308
2023-05-01T07:37:23.010Z,6.9692
2023-05-01T07:38:24.477Z,5.5538
2023-05-01T07:39:25.873Z,4.2308
2023-05-01T07:40:27.353Z,4.2308
2023-05-01T07:41:28.710Z,3.5231
2023-05-01T07:42:30.147Z,3.5692
2023-05-01T07:43:31.536Z,3.4308
2023-05-01T07:44:32.991Z,2.9846
2023-05-01T07:45:34.415Z,2.8769
2023-05-01T07:46:35.883Z,2.6923
2023-05-01T07:47:37.262Z,2.7231
2023-05-01T07:48:39.185Z,2.5846
2023-05-01T07:49:40.143Z,2.2000
2023-05-01T07:50:41.550Z,2.3538
2023-05-01T07:51:42.946Z,2.4462
2023-05-01T07:52:44.422Z,2.7231
2023-05-01T07:53:45.718Z,3.2308
2023-05-01T07:54:47.252Z,2.8923
2023-05-01T07:55:48.614Z,2.8615
2023-05-01T07:56:50.049Z,2.9692
2023-05-01T07:57:51.415Z,3.8462
2023-05-01T07:58:52.863Z,3.7538
2023-05-01T07:59:54.435Z,3.9077
2023-05-01T08:00:55.811Z,2.9692
2023-05-01T08:01:57.252Z,3.2154
2023-05-01T08:02:58.733Z,3.2000
2023-05-01T08:04:00.238Z,3.2462
2023-05-01T08:05:01.626Z,3.4154
2023-05-01T08:06:03.077Z,3.9385
2023-05-01T08:07:04.370Z,4.0615
2023-05-01T08:08:05.673Z,4.5231
2023-05-01T08:09:07.169Z,4.9538
2023-05-01T08:10:08.637Z,5.6308
2023-05-01T08:11:10.148Z,5.4615
2023-05-01T08:12:11.449Z,6.1538
2023-05-01T08:13:12.874Z,7.0923
2023-05-01T08:14:14.279Z,6.8154
2023-05-01T08:15:15.769Z,7.0000
2023-05-01T08:16:18.168Z,6.9077
2023-05-01T08:17:18.594Z,6.8462
2023-05-01T08:18:19.949Z,7.1077
2023-05-01T08:19:21.410Z,7.3231
2023-05-01T08:20:22.891Z,7.6462
2023-05-01T08:21:24.252Z,7.8769
2023-05-01T08:22:25.654Z,8.0000
2023-05-01T08:23:27.057Z,7.6308
2023-05-01T08:24:28.495Z,8.1846
2023-05-01T08:25:29.890Z,8.4923
2023-05-01T08:26:31.354Z,8.6462
2023-05-01T08:27:32.776Z,9.0462
2023-05-01T08:28:34.162Z,9.4000
2023-05-01T08:29:35.557Z,9.9385
2023-05-01T08:30:37.018Z,9.7846
2023-05-01T08:31:38.589Z,10.0154
2023-05-01T08:32:40.001Z,7.0615
2023-05-01T08:33:41.265Z,6.7385
2023-05-01T08:34:42.720Z,6.3077
2023-05-01T08:35:44.124Z,6.4154
2023-05-01T08:36:45.502Z,6.6154
2023-05-01T08:37:46.990Z,7.0000
2023-05-01T08:38:48.383Z,7.4769
2023-05-01T08:39:49.830Z,8.6308
2023-05-01T08:40:51.254Z,8.3077
2023-05-01T08:41:52.786Z,7.1538
2023-05-01T08:42:54.097Z,6.8769
2023-05-01T08:43:55.587Z,6.6615
2023-05-01T08:44:56.924Z,7.0769
2023-05-01T08:45:58.425Z,7.4000
2023-05-01T08:46:59.894Z,8.3846
2023-05-01T08:48:01.258Z,9.3385
2023-05-01T08:49:02.613Z,7.3538
2023-05-01T08:50:04.069Z,6.1692
2023-05-01T08:51:05.499Z,4.5077
2023-05-01T08:52:06.945Z,3.2462
2023-05-01T08:53:08.356Z,2.6154
2023-05-01T08:54:09.757Z,2.3538
2023-05-01T08:55:11.157Z,2.3538
2023-05-01T08:56:12.599Z,2.4000
2023-05-01T08:57:13.997Z,2.4769
2023-05-01T08:58:15.425Z,2.1385
2023-05-01T08:59:16.827Z,2.1385
2023-05-01T09:00:18.270Z,2.0154
2023-05-01T09:01:19.712Z,2.0000
2023-05-01T09:02:21.248Z,2.0000
2023-05-01T09:03:22.750Z,1.9538
2023-05-01T09:04:24.014Z,1.8923
2023-05-01T09:05:25.353Z,1.8769
2023-05-01T09:06:26.894Z,1.9846
2023-05-01T09:07:28.259Z,1.8769
2023-05-01T09:08:29.681Z,2.0769
2023-05-01T09:09:31.092Z,2.0615
2023-05-01T09:10:33.066Z,2.2769
2023-05-01T09:11:33.918Z,2.4000
2023-05-01T09:12:35.430Z,2.5385
2023-05-01T09:13:36.826Z,2.5231
2023-05-01T09:14:38.139Z,2.4769
2023-05-01T09:15:39.575Z,2.8308
2023-05-01T09:16:41.083Z,2.9231
2023-05-01T09:17:42.561Z,2.6923
2023-05-01T09:18:43.941Z,2.8154
2023-05-01T09:19:45.282Z,3.2769
2023-05-01T09:20:46.756Z,3.1385
2023-05-01T09:21:48.098Z,3.9538
2023-05-01T09:22:49.614Z,5.1077
2023-05-01T09:23:50.940Z,4.8769
2023-05-01T09:24:52.402Z,4.9538
2023-05-01T09:25:53.854Z,4.4000
2023-05-01T09:26:55.255Z,4.2308
2023-05-01T09:27:56.702Z,4.4769
2023-05-01T09:28:58.177Z,4.3385
2023-05-01T09:29:59.587Z,4.5385
2023-05-01T09:31:00.940Z,5.3231
2023-05-01T09:32:02.563Z,4.8615
2023-05-01T09:33:03.921Z,5.1692
2023-05-01T09:34:05.292Z,5.4615
2023-05-01T09:35:06.623Z,6.1077
2023-05-01T09:36:08.111Z,6.4769
2023-05-01T09:37:09.542Z,7.2462
2023-05-01T09:38:10.943Z,6.9385
2023-05-01T09:39:12.435Z,7.3692
2023-05-01T09:40:13.790Z,7.4000
2023-05-01T09:41:15.157Z,7.9231
2023-05-01T09:42:16.620Z,8.4923
2023-05-01T09:43:18.080Z,8.3538
2023-05-01T09:44:19.469Z,8.8154
2023-05-01T09:45:20.842Z,8.8154
2023-05-01T09:46:22.362Z,9.5385
2023-05-01T09:47:23.779Z,8.7846
2023-05-01T09:48:25.187Z,9.2154
2023-05-01T09:49:26.508Z,9.4308
2023-05-01T09:50:27.985Z,9.6154
2023-05-01T09:51:29.415Z,9.6923
2023-05-01T09:52:30.857Z,10.4615
2023-05-01T09:53:32.345Z,9.7385
2023-05-01T09:54:33.734Z,10.0615
2023-05-01T09:55:35.095Z,10.4462
2023-05-01T09:56:36.551Z,10.3385
2023-05-01T09:57:37.946Z,10.7077
2023-05-01T09:58:39.471Z,10.6154
2023-05-01T09:59:41.034Z,11.0769
2023-05-01T10:00:42.233Z,10.5692
2023-05-01T10:01:43.738Z,10.9231
2023-05-01T10:02:45.277Z,12.0769
2023-05-01T10:03:46.631Z,10.9692
2023-05-01T10:04:47.901Z,11.3231
2023-05-01T10:05:49.355Z,11.4923
2023-05-01T10:06:51.123Z,11.5846
2023-05-01T10:07:52.239Z,11.7385
2023-05-01T10:08:53.706Z,12.0615
2023-05-01T10:09:55.366Z,12.2154
2023-05-01T10:10:56.498Z,11.5385
2023-05-01T10:11:58.152Z,11.9692
2023-05-01T10:12:59.396Z,12.5077
2023-05-01T10:14:00.840Z,12.3077
2023-05-01T10:15:13.712Z,12.4154
2023-05-01T10:16:03.627Z,12.4000
2023-05-01T10:17:05.166Z,12.3538
2023-05-01T10:18:06.517Z,12.3385
2023-05-01T10:19:08.001Z,12.7538
2023-05-01T10:20:09.290Z,12.8308
2023-05-01T10:21:10.805Z,13.1538
2023-05-01T10:22:12.191Z,13.4923
2023-05-01T10:23:13.625Z,13.2000
2023-05-01T10:24:15.118Z,13.1231
2023-05-01T10:25:16.528Z,13.4154
2023-05-01T10:26:17.898Z,13.7692
2023-05-01T10:27:19.387Z,13.5692
2023-05-01T10:28:20.750Z,13.6923
2023-05-01T10:29:22.226Z,13.7231
2023-05-01T10:30:23.642Z,13.8000
2023-05-01T10:31:25.115Z,13.8769
2023-05-01T10:32:26.461Z,13.8923
2023-05-01T10:33:27.841Z,13.9231
2023-05-01T10:34:29.373Z,14.1077
2023-05-01T10:35:30.845Z,14.1692
2023-05-01T10:36:32.122Z,14.2769
2023-05-01T10:37:33.583Z,14.2000
2023-05-01T10:38:34.995Z,14.2769
2023-05-01T10:39:36.514Z,14.3538
2023-05-01T10:40:37.956Z,14.2769
2023-05-01T10:41:39.280Z,14.2615
2023-05-01T10:42:40.721Z,14.3692
2023-05-01T10:43:42.151Z,14.4769
2023-05-01T10:44:43.589Z,14.5385
2023-05-01T10:45:45.071Z,14.5692
2023-05-01T10:46:46.590Z,14.6308
2023-05-01T10:47:47.928Z,14.6615
2023-05-01T10:48:49.271Z,14.6308
2023-05-01T10:49:50.749Z,14.5538
2023-05-01T10:50:52.167Z,14.6462
2023-05-01T10:51:53.556Z,14.6308
2023-05-01T10:52:54.896Z,14.6462
2023-05-01T10:53:56.489Z,14.7385
2023-05-01T10:54:58.002Z,14.7077
2023-05-01T10:55:59.255Z,14.8000
2023-05-01T10:57:00.698Z,14.8462
2023-05-01T10:58:02.124Z,14.8154
2023-05-01T10:59:03.547Z,14.7846
2023-05-01T11:00:04.919Z,14.8154
2023-05-01T11:01:06.545Z,14.8923
2023-05-01T11:02:07.919Z,15.0462
2023-05-01T11:03:09.191Z,15.1385
2023-05-01T11:04:10.683Z,15.1692
2023-05-01T11:05:12.135Z,15.0615
2023-05-01T11:06:13.635Z,15.0000
2023-05-01T11:07:15.026Z,14.7846
2023-05-01T11:08:16.376Z,14.9077
2023-05-01T11:09:17.763Z,15.0308
2023-05-01T11:10:19.191Z,15.1231
2023-05-01T11:11:20.665Z,15.1385
2023-05-01T11:12:21.966Z,15.1692
2023-05-01T11:13:23.500Z,15.1385
2023-05-01T11:14:25.051Z,15.0769
2023-05-01T11:15:26.358Z,15.2462
2023-05-01T11:16:27.898Z,15.2769
2023-05-01T11:17:29.235Z,15.2000
2023-05-01T11:18:30.653Z,15.3385
2023-05-01T11:19:31.985Z,15.3385
2023-05-01T11:20:33.537Z,15.3231
2023-05-01T11:21:34.975Z,15.2769
2023-05-01T11:22:36.434Z,15.2000
2023-05-01T11:23:37.820Z,15.3231
2023-05-01T11:24:39.228Z,15.4154
2023-05-01T11:25:40.612Z,15.1692
2023-05-01T11:26:42.183Z,15.1385
2023-05-01T11:27:43.465Z,15.2000
2023-05-01T11:28:44.893Z,15.1846
2023-05-01T11:29:46.312Z,15.1692
2023-05-01T11:30:47.765Z,15.2923
2023-05-01T11:31:49.258Z,15.3692
2023-05-01T11:32:50.719Z,15.0923
2023-05-01T11:33:51.995Z,14.9846
2023-05-01T11:34:53.452Z,15.0462
2023-05-01T11:35:54.861Z,15.0000
2023-05-01T11:36:56.296Z,15.1385
2023-05-01T11:37:57.787Z,15.2462
2023-05-01T11:38:59.102Z,14.9538
2023-05-01T11:40:00.562Z,14.9231
2023-05-01T11:41:01.945Z,14.8154
2023-05-01T11:42:03.505Z,16.0769
2023-05-01T11:43:04.832Z,16.0308
2023-05-01T11:44:06.284Z,15.3692
2023-05-01T11:45:07.664Z,16.7692
2023-05-01T11:46:09.243Z,15.3231
2023-05-01T11:47:10.575Z,15.7077
2023-05-01T11:48:12.092Z,17.9385
2023-05-01T11:49:13.337Z,21.7231
2023-05-01T11:50:14.705Z,28.7385
2023-05-01T11:51:16.193Z,34.4923
2023-05-01T11:52:17.707Z,37.9538
2023-05-01T11:53:19.034Z,41.4308
2023-05-01T11:54:20.520Z,42.1231
2023-05-01T11:55:21.877Z,41.8462
2023-05-01T11:56:27.038Z,41.9692
2023-05-01T11:57:24.766Z,42.6154
2023-05-01T11:58:26.165Z,40.7077
2023-05-01T11:59:27.573Z,38.8615
2023-05-01T12:00:29.058Z,39.9538
2023-05-01T12:01:30.451Z,41.4615
2023-05-01T12:02:32.132Z,41.9385
2023-05-01T12:03:33.450Z,40.3385
2023-05-01T12:04:34.776Z,37.8769
2023-05-01T12:05:36.241Z,34.1077
2023-05-01T12:06:37.760Z,29.5385
2023-05-01T12:07:38.990Z,27.7385
2023-05-01T12:08:40.515Z,27.0154
2023-05-01T12:09:41.888Z,28.0615
2023-05-01T12:10:43.349Z,28.5385
2023-05-01T12:11:44.730Z,27.7077
2023-05-01T12:12:46.208Z,29.2615
2023-05-01T12:13:47.622Z,26.4769
2023-05-01T12:14:49.046Z,25.7846
2023-05-01T12:15:50.455Z,25.4615
2023-05-01T12:16:51.964Z,24.9538
2023-05-01T12:17:53.375Z,24.8000
2023-05-01T12:18:54.813Z,24.4923
2023-05-01T12:19:56.050Z,24.5385
2023-05-01T12:20:57.652Z,23.6615
2023-05-01T12:21:58.978Z,23.6923
2023-05-01T12:23:00.466Z,23.4923
2023-05-01T12:24:01.856Z,22.9846
2023-05-01T12:25:03.284Z,23.5692
2023-05-01T12:26:04.662Z,23.4154
2023-05-01T12:27:06.130Z,22.7077
2023-05-01T12:28:07.570Z,22.3538